Time;durP1;ratioP1;P1;durP2;ratioP2;P2;SDS_P1;SDS_P2;PMS_P1;PMS_P2;Temp;Humidity;BMP_temperature;BMP_pressure;BME280_temperature;BME280_humidity;BME280_pressure;Samples;Min_cycle;Max_cycle;Signal;HPM_P1;HPM_P2
2023/07/20 00:01:45;;;;;;;4.80;0.63;;;15.80;99.90;;;;;;5071247;28;20434;-82
2023/07/20 00:04:32;;;;;;;2.63;0.60;;;15.80;99.90;;;;;;5089548;28;20388;-83
2023/07/20 00:07:18;;;;;;;4.35;0.82;;;15.80;99.90;;;;;;5071063;28;20036;-83
2023/07/20 00:10:05;;;;;;;1.55;0.50;;;15.80;99.90;;;;;;5062702;28;20414;-85
2023/07/20 00:12:51;;;;;;;4.00;0.82;;;15.80;99.90;;;;;;5089827;28;20109;-81
2023/07/20 00:15:38;;;;;;;1.02;0.50;;;15.80;99.90;;;;;;5089241;28;20415;-82
2023/07/20 00:18:24;;;;;;;3.72;0.60;;;15.80;99.90;;;;;;5090136;28;20149;-83
2023/07/20 00:21:10;;;;;;;7.78;0.73;;;15.70;99.90;;;;;;5076087;28;20130;-82
2023/07/20 00:23:56;;;;;;;2.80;1.05;;;15.70;99.90;;;;;;5075830;28;20183;-82
2023/07/20 00:26:42;;;;;;;2.38;0.35;;;15.70;99.90;;;;;;5094567;28;20044;-82
2023/07/20 00:29:31;;;;;;;1.48;0.50;;;15.70;99.90;;;;;;5092662;28;20055;-83
2023/07/20 00:32:17;;;;;;;2.03;0.70;;;15.60;99.90;;;;;;5093197;28;20174;-83
2023/07/20 00:35:04;;;;;;;1.45;0.50;;;15.60;99.90;;;;;;5094658;28;20506;-82
2023/07/20 00:37:50;;;;;;;3.13;0.40;;;15.60;99.90;;;;;;5079621;28;20090;-84
2023/07/20 00:40:40;;;;;;;1.73;0.50;;;15.60;99.90;;;;;;5093891;28;20460;-82
2023/07/20 00:43:26;;;;;;;0.88;0.40;;;15.50;99.90;;;;;;5093750;28;20048;-83
2023/07/20 00:46:14;;;;;;;1.83;0.40;;;15.50;99.90;;;;;;5080128;28;20086;-81
2023/07/20 00:49:00;;;;;;;2.85;0.50;;;15.50;99.90;;;;;;5075098;28;20113;-83
2023/07/20 00:51:49;;;;;;;4.60;0.63;;;15.50;99.90;;;;;;5093078;28;20044;-81
2023/07/20 00:54:36;;;;;;;5.13;0.77;;;15.50;99.90;;;;;;5060832;28;20058;-81
2023/07/20 00:57:26;;;;;;;2.22;0.60;;;15.50;99.90;;;;;;5094050;28;20144;-83
2023/07/20 01:00:14;;;;;;;1.15;0.40;;;15.40;99.90;;;;;;5093088;28;20785;-83
2023/07/20 01:03:00;;;;;;;1.88;0.40;;;15.40;99.90;;;;;;5092793;28;20062;-82
2023/07/20 01:05:53;;;;;;;1.88;0.47;;;15.40;99.90;;;;;;5074885;28;20052;-81
2023/07/20 01:08:45;;;;;;;2.20;0.52;;;15.30;99.90;;;;;;5092955;28;20055;-82
2023/07/20 01:11:52;;;;;;;1.73;0.60;;;15.30;99.90;;;;;;5092970;28;20237;-82
2023/07/20 01:14:39;;;;;;;4.07;0.70;;;15.40;99.90;;;;;;5093609;28;20040;-83
2023/07/20 01:17:25;;;;;;;5.05;0.60;;;15.30;99.90;;;;;;5075015;28;20583;-84
2023/07/20 01:20:15;;;;;;;3.03;0.63;;;15.30;99.90;;;;;;5073424;28;20408;-83
2023/07/20 01:23:27;;;;;;;1.30;0.50;;;15.30;99.90;;;;;;5091736;28;20055;-82
2023/07/20 01:26:25;;;;;;;1.13;0.40;;;15.30;99.90;;;;;;5093402;28;20056;-84
2023/07/20 01:29:24;;;;;;;2.17;0.65;;;15.30;99.90;;;;;;5074821;28;20051;-83
2023/07/20 01:32:10;;;;;;;5.38;0.60;;;15.40;99.90;;;;;;5072796;28;20062;-83
2023/07/20 01:34:58;;;;;;;2.80;0.52;;;15.40;99.90;;;;;;5092165;28;20059;-84
2023/07/20 01:37:46;;;;;;;1.48;0.43;;;15.40;99.90;;;;;;5074724;28;20051;-83
2023/07/20 01:40:34;;;;;;;3.00;0.50;;;15.40;99.90;;;;;;5091043;28;20491;-83
2023/07/20 01:43:20;;;;;;;3.03;0.55;;;15.30;99.90;;;;;;5092970;28;20123;-82
2023/07/20 01:46:06;;;;;;;1.92;0.40;;;15.40;99.90;;;;;;5091862;28;20438;-83
2023/07/20 01:48:54;;;;;;;3.05;0.50;;;15.30;99.90;;;;;;5092026;28;20075;-83
2023/07/20 01:51:40;;;;;;;1.80;0.80;;;15.30;99.90;;;;;;5091271;28;20100;-82
2023/07/20 01:54:26;;;;;;;1.90;0.52;;;15.30;99.90;;;;;;5073859;28;20051;-83
2023/07/20 01:57:12;;;;;;;2.60;0.60;;;15.30;99.90;;;;;;5091368;28;20063;-83
2023/07/20 01:59:58;;;;;;;3.95;0.98;;;15.40;99.90;;;;;;5092173;28;20087;-83
2023/07/20 02:02:45;;;;;;;1.83;0.50;;;15.40;99.90;;;;;;5091782;28;20528;-83
2023/07/20 02:05:31;;;;;;;1.58;0.60;;;15.40;99.90;;;;;;5077541;28;20441;-82
2023/07/20 02:08:18;;;;;;;3.95;0.68;;;15.40;99.90;;;;;;5073987;28;20048;-81
2023/07/20 02:11:04;;;;;;;2.67;0.65;;;15.30;99.90;;;;;;5092250;28;20071;-83
2023/07/20 02:13:50;;;;;;;2.05;0.70;;;15.30;99.90;;;;;;5090566;28;20568;-83
2023/07/20 02:16:37;;;;;;;3.10;0.85;;;15.30;99.90;;;;;;5091176;28;20047;-83
2023/07/20 02:19:24;;;;;;;2.30;0.63;;;15.30;99.90;;;;;;5091083;28;20062;-81
2023/07/20 02:22:10;;;;;;;1.65;0.43;;;15.30;99.90;;;;;;5090272;28;20063;-85
2023/07/20 02:24:57;;;;;;;2.78;0.43;;;15.30;99.90;;;;;;5090557;28;20052;-83
2023/07/20 02:27:43;;;;;;;2.22;0.80;;;15.30;99.90;;;;;;5091037;28;20392;-84
2023/07/20 02:30:29;;;;;;;3.72;0.88;;;15.40;99.90;;;;;;5072050;28;20216;-84
2023/07/20 02:33:15;;;;;;;3.00;0.77;;;15.40;99.90;;;;;;5091551;28;20058;-84
2023/07/20 02:36:01;;;;;;;5.40;0.88;;;15.30;99.90;;;;;;5060128;28;20048;-83
2023/07/20 02:38:47;;;;;;;2.72;0.98;;;15.40;99.90;;;;;;5090171;28;20541;-82
2023/07/20 02:41:33;;;;;;;2.70;0.50;;;15.30;99.90;;;;;;5090102;28;20048;-82
2023/07/20 02:44:20;;;;;;;6.45;1.52;;;15.30;99.90;;;;;;5090141;28;20059;-83
2023/07/20 02:47:06;;;;;;;3.60;0.88;;;15.30;99.90;;;;;;5072176;28;20043;-83
2023/07/20 02:49:52;;;;;;;4.45;1.08;;;15.40;99.90;;;;;;5091052;28;20051;-82
2023/07/20 02:52:38;;;;;;;2.25;0.60;;;15.30;99.90;;;;;;5075418;28;20055;-81
2023/07/20 02:55:24;;;;;;;3.72;0.82;;;15.30;99.90;;;;;;5092257;28;20049;-82
2023/07/20 02:58:10;;;;;;;1.67;0.70;;;15.30;99.90;;;;;;5093311;28;20112;-82
2023/07/20 03:00:56;;;;;;;7.18;0.93;;;15.30;99.90;;;;;;5092958;28;20051;-81
2023/07/20 03:03:46;;;;;;;3.47;0.90;;;15.30;99.90;;;;;;5091616;28;20059;-80
2023/07/20 03:06:35;;;;;;;4.75;0.75;;;15.40;99.90;;;;;;5093082;28;20055;-82
2023/07/20 03:09:22;;;;;;;4.30;0.80;;;15.40;99.90;;;;;;5093947;28;20051;-81
2023/07/20 03:12:08;;;;;;;2.25;0.60;;;15.40;99.90;;;;;;5093423;28;20042;-82
2023/07/20 03:14:55;;;;;;;2.25;0.95;;;15.50;99.90;;;;;;5092626;28;20044;-84
2023/07/20 03:17:41;;;;;;;3.42;0.70;;;15.50;99.90;;;;;;5089438;28;20060;-83
2023/07/20 03:20:28;;;;;;;1.95;0.50;;;15.50;99.90;;;;;;5089686;28;20048;-85
2023/07/20 03:23:15;;;;;;;3.03;0.90;;;15.50;99.90;;;;;;5090032;28;20048;-85
2023/07/20 03:26:01;;;;;;;2.95;0.68;;;15.50;99.90;;;;;;5091247;28;20616;-83
2023/07/20 03:28:47;;;;;;;2.13;0.60;;;15.50;99.90;;;;;;5091993;28;20097;-83
2023/07/20 03:31:34;;;;;;;4.00;0.70;;;15.50;99.90;;;;;;5076389;28;20041;-84
2023/07/20 03:34:20;;;;;;;5.32;0.93;;;15.50;99.90;;;;;;5090357;28;20412;-84
2023/07/20 03:37:06;;;;;;;10.00;1.98;;;15.50;99.90;;;;;;5091514;28;20498;-84
2023/07/20 03:39:52;;;;;;;8.48;1.45;;;15.40;99.90;;;;;;5089224;28;20056;-79
2023/07/20 03:42:38;;;;;;;5.90;1.85;;;15.30;99.90;;;;;;5090343;28;20048;-81
2023/07/20 03:45:24;;;;;;;4.47;1.13;;;15.20;99.90;;;;;;5071529;28;20058;-82
2023/07/20 03:48:11;;;;;;;4.28;1.00;;;15.20;99.90;;;;;;5072068;28;20055;-82
2023/07/20 03:50:58;;;;;;;3.75;1.00;;;15.20;99.90;;;;;;5074419;28;20048;-83
2023/07/20 03:53:44;;;;;;;5.65;1.42;;;15.10;99.90;;;;;;5059700;28;20051;-81
2023/07/20 03:56:34;;;;;;;5.07;1.05;;;15.10;99.90;;;;;;5093412;28;20051;-81
2023/07/20 03:59:20;;;;;;;9.45;1.20;;;15.00;99.90;;;;;;5092722;28;20142;-81
2023/07/20 04:02:06;;;;;;;6.70;0.98;;;15.00;99.90;;;;;;5076335;28;20543;-81
2023/07/20 04:04:52;;;;;;;4.43;0.77;;;15.00;99.90;;;;;;5076234;28;20135;-82
2023/07/20 04:07:38;;;;;;;5.47;1.05;;;15.10;99.90;;;;;;5093306;28;20091;-82
2023/07/20 04:10:24;;;;;;;4.80;1.58;;;15.10;99.90;;;;;;5094756;28;20043;-82
2023/07/20 04:13:11;;;;;;;8.27;2.47;;;15.10;99.90;;;;;;5093935;28;20052;-84
2023/07/20 04:15:57;;;;;;;4.63;1.02;;;15.10;99.90;;;;;;5093807;28;20055;-83
2023/07/20 04:18:43;;;;;;;2.53;0.75;;;15.10;99.90;;;;;;5092872;28;20095;-83
2023/07/20 04:21:29;;;;;;;4.20;1.10;;;15.10;99.90;;;;;;5074090;28;20044;-83
2023/07/20 04:24:16;;;;;;;4.50;1.05;;;15.10;99.90;;;;;;5076029;28;20048;-81
2023/07/20 04:27:02;;;;;;;4.10;0.85;;;15.10;99.90;;;;;;5093327;28;20082;-80
2023/07/20 04:29:48;;;;;;;3.35;0.73;;;15.10;99.90;;;;;;5075871;28;20051;-82
2023/07/20 04:32:34;;;;;;;1.80;0.70;;;15.00;99.90;;;;;;5093043;28;20504;-82
2023/07/20 04:35:53;;;;;;;2.60;0.70;;;15.10;99.90;;;;;;5075158;28;20040;-82
2023/07/20 04:38:39;;;;;;;3.33;0.93;;;15.00;99.90;;;;;;5092989;28;20467;-82
2023/07/20 04:41:26;;;;;;;6.35;0.80;;;15.00;99.90;;;;;;5094368;28;20048;-81
2023/07/20 04:44:13;;;;;;;4.32;0.85;;;15.00;99.90;;;;;;5094302;28;20051;-82
2023/07/20 04:47:00;;;;;;;3.38;0.82;;;15.00;99.90;;;;;;5060022;28;20090;-84
2023/07/20 04:49:46;;;;;;;5.57;1.42;;;15.10;99.90;;;;;;5074422;28;20098;-82
2023/07/20 04:52:32;;;;;;;3.45;1.10;;;15.10;99.90;;;;;;5074976;28;20059;-85
2023/07/20 04:55:18;;;;;;;4.68;0.95;;;15.10;99.90;;;;;;5094601;28;20036;-83
2023/07/20 04:58:05;;;;;;;3.63;1.13;;;15.20;99.90;;;;;;5074071;28;20056;-81
2023/07/20 05:00:52;;;;;;;3.17;0.90;;;15.20;99.90;;;;;;5092196;28;20087;-84
2023/07/20 05:03:38;;;;;;;5.40;1.00;;;15.30;99.90;;;;;;5092741;28;20054;-82
2023/07/20 05:06:24;;;;;;;3.50;0.88;;;15.30;99.90;;;;;;5075268;28;20048;-83
2023/07/20 05:09:10;;;;;;;5.18;1.17;;;15.40;99.90;;;;;;5092770;28;20489;-84
2023/07/20 05:11:56;;;;;;;2.80;0.70;;;15.30;99.90;;;;;;5078808;28;20101;-83
2023/07/20 05:14:42;;;;;;;4.22;0.88;;;15.40;99.90;;;;;;5093413;28;20565;-83
2023/07/20 05:17:29;;;;;;;3.58;0.82;;;15.50;99.90;;;;;;5091507;28;20075;-82
2023/07/20 05:20:15;;;;;;;3.80;1.08;;;15.60;99.90;;;;;;5091461;28;20442;-83
2023/07/20 05:23:02;;;;;;;4.20;1.17;;;15.70;99.90;;;;;;5074051;28;20040;-84
2023/07/20 05:25:59;;;;;;;4.75;1.60;;;15.80;99.90;;;;;;5093071;28;20091;-84
2023/07/20 05:28:45;;;;;;;4.97;1.30;;;15.90;99.90;;;;;;5092337;28;20044;-84
2023/07/20 05:31:31;;;;;;;6.13;1.10;;;16.00;99.90;;;;;;5093390;28;20067;-83
2023/07/20 05:34:18;;;;;;;6.40;1.30;;;16.00;99.90;;;;;;5091768;28;20059;-82
2023/07/20 05:37:04;;;;;;;5.72;1.33;;;16.10;99.90;;;;;;5091995;28;20048;-84
2023/07/20 05:39:50;;;;;;;5.03;1.27;;;16.30;99.90;;;;;;5092132;28;20185;-83
2023/07/20 05:42:36;;;;;;;6.95;1.25;;;16.40;99.90;;;;;;5094521;28;20134;-82
2023/07/20 05:45:22;;;;;;;4.63;1.50;;;16.50;99.90;;;;;;5095192;28;20044;-82
2023/07/20 05:48:13;;;;;;;10.45;2.42;;;16.60;99.90;;;;;;5093289;28;20541;-81
2023/07/20 05:50:59;;;;;;;6.50;1.95;;;16.60;99.90;;;;;;5078168;28;20083;-85
2023/07/20 05:53:46;;;;;;;5.30;2.42;;;16.70;99.90;;;;;;5092494;28;20113;-83
2023/07/20 05:56:32;;;;;;;3.63;1.33;;;16.70;99.90;;;;;;5078536;28;20503;-83
2023/07/20 05:59:23;;;;;;;4.57;1.65;;;16.70;99.90;;;;;;5078063;28;20054;-82
2023/07/20 06:02:10;;;;;;;4.97;1.38;;;16.70;99.90;;;;;;5091039;28;20040;-84
2023/07/20 06:04:56;;;;;;;4.20;1.50;;;16.80;99.90;;;;;;5072742;28;20105;-82
2023/07/20 06:07:42;;;;;;;4.32;1.60;;;16.90;99.90;;;;;;5072545;28;20154;-84
2023/07/20 06:10:28;;;;;;;5.03;1.65;;;17.00;99.90;;;;;;5090709;28;20557;-84
2023/07/20 06:13:14;;;;;;;8.00;1.70;;;17.10;99.90;;;;;;5091248;28;20105;-83
2023/07/20 06:16:00;;;;;;;9.63;2.00;;;17.30;99.90;;;;;;5090874;28;20055;-84
2023/07/20 06:18:46;;;;;;;8.57;2.20;;;17.40;99.90;;;;;;5089592;28;20048;-86
2023/07/20 06:21:32;;;;;;;4.70;1.35;;;17.60;99.90;;;;;;5071974;28;20573;-83
2023/07/20 06:24:19;;;;;;;8.02;2.30;;;17.70;99.90;;;;;;5091081;28;20048;-83
2023/07/20 06:27:05;;;;;;;6.65;1.88;;;17.90;99.90;;;;;;5090428;28;20079;-85
2023/07/20 06:29:51;;;;;;;4.20;1.70;;;18.00;99.90;;;;;;5076200;28;20388;-85
2023/07/20 06:32:39;;;;;;;6.28;1.42;;;17.90;99.90;;;;;;5092172;28;20070;-84
2023/07/20 06:35:26;;;;;;;11.38;2.45;;;17.90;99.90;;;;;;5090440;28;20161;-81
2023/07/20 06:38:12;;;;;;;7.00;1.48;;;18.10;99.90;;;;;;5090605;28;20052;-83
2023/07/20 06:40:58;;;;;;;5.97;1.45;;;18.30;99.90;;;;;;5094971;28;20123;-82
2023/07/20 06:43:45;;;;;;;6.13;1.48;;;18.50;99.90;;;;;;5075850;28;20571;-82
2023/07/20 06:46:31;;;;;;;5.63;1.30;;;18.60;99.90;;;;;;5072607;28;20044;-82
2023/07/20 06:49:27;;;;;;;5.78;1.48;;;18.60;99.90;;;;;;5090819;28;20522;-84
2023/07/20 06:52:13;;;;;;;4.13;1.20;;;18.60;99.90;;;;;;5091710;28;20491;-85
2023/07/20 06:54:59;;;;;;;5.70;1.17;;;18.80;99.90;;;;;;5091516;28;20045;-84
2023/07/20 06:57:45;;;;;;;5.18;1.52;;;18.80;99.90;;;;;;5076500;28;20052;-86
2023/07/20 07:00:31;;;;;;;6.00;1.85;;;19.00;99.90;;;;;;5090706;28;20097;-83
2023/07/20 07:03:18;;;;;;;5.13;1.20;;;19.10;99.90;;;;;;5090102;28;20051;-84
2023/07/20 07:06:04;;;;;;;5.65;1.40;;;19.20;99.70;;;;;;5091665;28;20056;-85
2023/07/20 07:08:50;;;;;;;5.07;1.25;;;19.00;99.60;;;;;;5073041;28;20040;-83
2023/07/20 07:11:36;;;;;;;4.63;1.10;;;18.90;99.60;;;;;;5090392;28;20463;-85
2023/07/20 07:14:23;;;;;;;4.50;1.00;;;19.00;99.30;;;;;;5090080;28;20043;-85
2023/07/20 07:17:09;;;;;;;3.60;0.60;;;19.00;98.80;;;;;;5089439;28;20048;-84
2023/07/20 07:19:56;;;;;;;4.07;0.77;;;19.00;98.30;;;;;;5091153;28;20052;-85
2023/07/20 07:22:43;;;;;;;7.28;0.80;;;19.20;98.20;;;;;;5060561;28;20070;-84
2023/07/20 07:25:30;;;;;;;2.75;0.60;;;19.10;98.30;;;;;;5091653;28;20089;-83
2023/07/20 07:28:16;;;;;;;3.88;0.70;;;19.20;98.60;;;;;;5045140;28;20055;-82
2023/07/20 07:31:05;;;;;;;4.10;0.85;;;19.20;98.70;;;;;;5090051;28;20052;-84
2023/07/20 07:33:51;;;;;;;3.15;0.63;;;19.20;98.30;;;;;;5089617;28;20443;-84
2023/07/20 07:36:38;;;;;;;5.35;0.88;;;19.30;98.20;;;;;;5090782;28;20073;-83
2023/07/20 07:39:24;;;;;;;3.50;0.90;;;19.60;98.50;;;;;;5075072;28;20552;-82
2023/07/20 07:42:11;;;;;;;4.25;0.70;;;19.90;98.60;;;;;;5090820;28;20074;-84
2023/07/20 07:44:57;;;;;;;3.35;0.80;;;20.00;98.30;;;;;;5090441;28;20109;-84
2023/07/20 07:47:43;;;;;;;3.90;0.80;;;20.10;98.10;;;;;;5089770;28;20052;-85
2023/07/20 07:50:29;;;;;;;3.75;0.75;;;19.90;98.00;;;;;;5075458;28;20059;-83
2023/07/20 07:53:15;;;;;;;4.97;1.30;;;19.90;98.40;;;;;;5089381;28;20079;-83
2023/07/20 07:56:03;;;;;;;4.47;0.60;;;20.00;98.10;;;;;;5072141;28;20051;-84
2023/07/20 07:58:51;;;;;;;5.38;0.82;;;20.20;97.70;;;;;;5090150;28;20044;-82
2023/07/20 08:01:37;;;;;;;2.92;0.85;;;20.30;97.20;;;;;;5090760;28;20055;-84
2023/07/20 08:04:23;;;;;;;2.78;0.70;;;20.40;96.80;;;;;;5088942;28;20044;-83
2023/07/20 08:07:09;;;;;;;4.60;0.80;;;20.70;97.10;;;;;;5089884;28;20511;-84
2023/07/20 08:09:55;;;;;;;2.70;0.80;;;20.80;96.90;;;;;;5090272;28;20093;-84
2023/07/20 08:12:42;;;;;;;6.30;0.90;;;20.70;96.70;;;;;;5089773;28;20416;-83
2023/07/20 08:15:28;;;;;;;8.85;1.00;;;20.80;96.90;;;;;;5090850;28;20044;-85
2023/07/20 08:18:14;;;;;;;5.18;0.80;;;20.90;96.70;;;;;;5075265;28;20145;-85
2023/07/20 08:21:00;;;;;;;7.38;0.93;;;21.00;95.60;;;;;;5088700;28;20164;-81
2023/07/20 08:23:46;;;;;;;3.30;0.90;;;21.10;95.90;;;;;;5076425;28;20044;-83
2023/07/20 08:26:32;;;;;;;2.42;0.55;;;21.20;95.70;;;;;;5089410;28;20508;-84
2023/07/20 08:29:18;;;;;;;3.70;0.70;;;21.30;95.90;;;;;;5091180;28;20079;-84
2023/07/20 08:32:05;;;;;;;3.13;0.60;;;21.40;95.60;;;;;;5089418;28;20055;-84
2023/07/20 08:34:52;;;;;;;3.35;0.75;;;21.50;95.50;;;;;;5089162;28;20101;-84
2023/07/20 08:37:38;;;;;;;2.42;0.73;;;21.70;95.50;;;;;;5091090;28;20094;-86
2023/07/20 08:40:24;;;;;;;5.32;0.70;;;22.00;95.30;;;;;;5089957;28;20402;-85
2023/07/20 08:43:11;;;;;;;3.50;0.70;;;21.80;94.80;;;;;;5094304;28;20457;-85
2023/07/20 08:46:07;;;;;;;5.47;1.20;;;21.90;95.00;;;;;;5092326;28;20136;-84
2023/07/20 08:48:54;;;;;;;3.88;0.73;;;21.90;95.00;;;;;;5092442;28;20054;-83
2023/07/20 08:51:41;;;;;;;4.00;0.60;;;22.10;94.20;;;;;;5092686;28;20044;-85
2023/07/20 08:54:33;;;;;;;2.55;0.68;;;21.90;93.20;;;;;;5075148;28;20056;-84
2023/07/20 08:57:22;;;;;;;4.70;0.70;;;21.90;93.90;;;;;;5077994;28;20040;-85
2023/07/20 09:00:12;;;;;;;3.42;0.50;;;22.10;94.00;;;;;;5074021;28;20228;-84
2023/07/20 09:03:00;;;;;;;4.75;1.17;;;22.20;93.60;;;;;;5076388;28;20152;-84
2023/07/20 09:05:46;;;;;;;4.90;0.70;;;22.60;93.60;;;;;;5091999;28;20048;-84
2023/07/20 09:08:33;;;;;;;3.88;0.75;;;22.50;93.10;;;;;;5078097;28;20499;-83
2023/07/20 09:11:19;;;;;;;2.20;0.50;;;22.50;92.70;;;;;;5093184;28;20040;-84
2023/07/20 09:14:10;;;;;;;2.97;0.70;;;22.50;92.50;;;;;;5092106;28;20175;-83
2023/07/20 09:16:56;;;;;;;3.45;0.50;;;22.60;93.00;;;;;;5091504;28;20048;-83
2023/07/20 09:19:47;;;;;;;7.40;1.27;;;22.80;92.80;;;;;;5079679;28;20083;-83
2023/07/20 09:22:33;;;;;;;2.70;0.80;;;22.80;92.40;;;;;;5095510;28;20048;-85
2023/07/20 09:25:20;;;;;;;1.95;0.40;;;22.90;92.20;;;;;;5092591;28;20145;-83
2023/07/20 09:28:06;;;;;;;8.77;1.70;;;23.10;92.30;;;;;;5078805;28;20128;-83
2023/07/20 09:30:55;;;;;;;4.57;0.88;;;23.20;92.20;;;;;;5095132;28;20048;-85
2023/07/20 09:33:41;;;;;;;7.35;0.85;;;23.20;91.80;;;;;;5078898;28;20416;-84
2023/07/20 09:36:28;;;;;;;4.03;0.65;;;23.40;92.10;;;;;;5047241;28;20566;-84
2023/07/20 09:39:14;;;;;;;5.55;1.08;;;23.30;91.60;;;;;;5075141;28;20101;-85
2023/07/20 09:42:01;;;;;;;5.57;0.80;;;23.30;91.60;;;;;;5094036;28;20130;-85
2023/07/20 09:44:48;;;;;;;4.70;1.40;;;23.50;91.30;;;;;;5091062;28;20052;-85
2023/07/20 09:47:37;;;;;;;4.43;1.10;;;23.70;91.50;;;;;;5060297;28;20055;-83
2023/07/20 09:50:23;;;;;;;2.13;0.55;;;23.70;90.50;;;;;;5093036;28;20422;-83
2023/07/20 09:53:15;;;;;;;6.07;1.08;;;23.90;91.20;;;;;;5092009;28;20433;-85
2023/07/20 09:56:02;;;;;;;4.75;1.05;;;23.90;90.20;;;;;;5092567;28;20048;-85
2023/07/20 09:58:48;;;;;;;4.57;0.68;;;23.80;91.00;;;;;;5092401;28;20051;-85
2023/07/20 10:01:38;;;;;;;2.60;0.60;;;23.80;90.50;;;;;;5091056;28;20519;-85
2023/07/20 10:04:25;;;;;;;6.65;0.73;;;23.60;90.90;;;;;;5091275;28;20052;-84
2023/07/20 10:07:12;;;;;;;3.00;0.73;;;23.90;91.30;;;;;;5092181;28;20078;-83
2023/07/20 10:10:02;;;;;;;3.50;1.48;;;23.90;90.40;;;;;;5091810;28;20142;-84
2023/07/20 10:12:49;;;;;;;3.25;0.60;;;23.70;90.90;;;;;;5095356;28;20048;-83
2023/07/20 10:15:46;;;;;;;4.55;0.75;;;23.70;91.10;;;;;;5075465;28;20040;-83
2023/07/20 10:18:41;;;;;;;2.78;0.90;;;24.10;90.10;;;;;;5091457;28;20048;-84
2023/07/20 10:21:29;;;;;;;3.55;0.60;;;24.10;90.40;;;;;;5093160;28;20075;-81
2023/07/20 10:24:16;;;;;;;3.20;0.90;;;24.30;90.40;;;;;;5092059;28;20052;-84
2023/07/20 10:27:02;;;;;;;3.13;0.90;;;24.30;90.10;;;;;;5092259;28;20082;-83
2023/07/20 10:29:50;;;;;;;2.42;0.68;;;24.40;89.80;;;;;;5072958;28;20403;-83
2023/07/20 10:32:36;;;;;;;2.33;0.50;;;24.60;90.00;;;;;;5092918;28;20098;-83
2023/07/20 10:35:23;;;;;;;2.47;0.93;;;24.60;87.00;;;;;;5090821;28;20044;-84
2023/07/20 10:38:09;;;;;;;4.28;0.75;;;24.40;87.60;;;;;;5090561;28;20110;-84
2023/07/20 10:40:56;;;;;;;3.90;0.75;;;24.10;88.10;;;;;;5075548;28;20492;-85
2023/07/20 10:43:45;;;;;;;2.03;0.50;;;24.50;88.90;;;;;;5091049;28;20407;-85
2023/07/20 10:46:34;;;;;;;2.22;0.50;;;24.80;90.00;;;;;;5090563;28;20052;-86
2023/07/20 10:49:26;;;;;;;3.03;0.70;;;25.10;88.80;;;;;;5073098;28;20404;-84
2023/07/20 10:52:12;;;;;;;5.22;0.90;;;25.10;88.70;;;;;;5090769;28;20051;-84
2023/07/20 10:55:11;;;;;;;2.03;0.40;;;25.30;88.30;;;;;;5091177;28;20051;-83
2023/07/20 10:58:11;;;;;;;2.80;0.60;;;25.50;85.60;;;;;;5073531;28;20059;-85
2023/07/20 11:01:02;;;;;;;3.40;0.77;;;25.50;86.60;;;;;;5089964;28;20040;-83
2023/07/20 11:03:50;;;;;;;4.07;0.65;;;25.70;86.70;;;;;;5090976;28;20051;-83
2023/07/20 11:06:38;;;;;;;3.63;0.65;;;25.90;86.60;;;;;;5073076;28;20087;-83
2023/07/20 11:09:25;;;;;;;2.28;0.50;;;26.00;85.70;;;;;;5072291;28;20643;-83
2023/07/20 11:12:14;;;;;;;3.13;0.70;;;25.80;84.70;;;;;;5091546;28;20123;-83
2023/07/20 11:15:00;;;;;;;3.45;0.63;;;25.70;84.80;;;;;;5091154;28;20085;-82
2023/07/20 11:17:46;;;;;;;4.40;0.80;;;25.70;85.70;;;;;;5089811;28;20095;-83
2023/07/20 11:20:32;;;;;;;2.50;0.50;;;26.10;85.50;;;;;;5089645;28;20043;-84
2023/07/20 11:23:20;;;;;;;5.07;0.70;;;26.30;85.00;;;;;;5090565;28;20091;-83
2023/07/20 11:26:06;;;;;;;2.20;0.50;;;26.10;84.60;;;;;;5089934;28;20101;-85
2023/07/20 11:28:53;;;;;;;2.13;0.60;;;26.30;82.90;;;;;;5043879;28;20130;-84
2023/07/20 11:31:41;;;;;;;2.47;0.60;;;26.20;83.20;;;;;;5092743;28;20436;-84
2023/07/20 11:34:30;;;;;;;1.73;0.55;;;25.90;84.30;;;;;;5091084;28;20462;-84
2023/07/20 11:37:17;;;;;;;2.20;0.50;;;26.30;84.90;;;;;;5090880;28;20189;-84
2023/07/20 11:40:03;;;;;;;2.83;0.88;;;26.10;83.40;;;;;;5062132;28;20052;-84
2023/07/20 11:42:50;;;;;;;1.83;0.70;;;26.30;81.10;;;;;;5090077;28;20051;-83
2023/07/20 11:45:38;;;;;;;1.27;0.30;;;26.40;82.60;;;;;;5074953;28;20139;-83
2023/07/20 11:48:24;;;;;;;2.97;0.43;;;26.40;81.80;;;;;;5089461;28;20047;-83
2023/07/20 11:51:20;;;;;;;2.58;0.60;;;26.50;80.30;;;;;;5089701;28;20063;-84
2023/07/20 11:54:08;;;;;;;3.03;0.60;;;26.10;79.90;;;;;;5072027;28;20496;-84
2023/07/20 11:56:58;;;;;;;2.72;0.40;;;26.20;82.00;;;;;;5092247;28;20076;-84
2023/07/20 11:59:59;;;;;;;3.33;0.73;;;26.40;82.40;;;;;;5072490;28;20055;-83
2023/07/20 12:02:45;;;;;;;3.28;0.70;;;26.20;80.40;;;;;;5089552;28;20055;-83
2023/07/20 12:05:31;;;;;;;3.72;0.63;;;26.40;81.30;;;;;;5058658;28;20056;-85
2023/07/20 12:08:17;;;;;;;2.13;0.50;;;26.50;82.20;;;;;;5090878;28;20048;-84
2023/07/20 12:11:03;;;;;;;4.57;0.70;;;26.70;82.20;;;;;;5090432;28;20135;-84
2023/07/20 12:13:49;;;;;;;3.08;0.80;;;27.00;80.70;;;;;;5075776;28;20052;-85
2023/07/20 12:16:37;;;;;;;4.07;0.70;;;27.00;78.40;;;;;;5093282;28;20055;-83
2023/07/20 12:19:25;;;;;;;3.58;0.50;;;27.20;80.10;;;;;;5094019;28;20048;-84
2023/07/20 12:22:12;;;;;;;5.40;0.70;;;27.50;80.10;;;;;;5075013;28;20051;-84
2023/07/20 12:24:58;;;;;;;3.60;1.15;;;27.80;79.50;;;;;;5092988;28;20104;-84
2023/07/20 12:27:44;;;;;;;3.40;0.70;;;28.00;80.00;;;;;;5094208;28;20048;-84
2023/07/20 12:30:33;;;;;;;2.72;0.60;;;28.30;79.60;;;;;;5094564;28;20059;-84
2023/07/20 12:33:20;;;;;;;6.72;0.98;;;28.50;80.60;;;;;;5076295;28;20051;-84
2023/07/20 12:36:06;;;;;;;4.05;1.33;;;28.60;79.70;;;;;;5092401;28;20060;-84
2023/07/20 12:38:52;;;;;;;1.67;0.50;;;28.80;80.50;;;;;;5092472;28;20048;-84
2023/07/20 12:41:38;;;;;;;2.42;0.60;;;28.90;79.30;;;;;;5092564;28;20044;-83
2023/07/20 12:44:24;;;;;;;2.65;0.50;;;28.70;77.20;;;;;;5092688;28;20385;-83
2023/07/20 12:47:10;;;;;;;4.15;1.10;;;28.80;77.80;;;;;;5093615;28;20072;-84
2023/07/20 12:49:56;;;;;;;1.75;0.60;;;28.70;76.30;;;;;;5092802;28;20057;-84
2023/07/20 12:52:42;;;;;;;2.60;0.77;;;28.20;76.70;;;;;;5092681;28;20048;-85
2023/07/20 12:55:28;;;;;;;3.08;0.60;;;28.60;76.20;;;;;;5098789;28;20048;-83
2023/07/20 12:58:15;;;;;;;4.47;1.13;;;28.30;76.60;;;;;;5093729;28;20504;-84
2023/07/20 13:01:01;;;;;;;2.00;0.60;;;28.30;75.80;;;;;;5094519;28;20395;-83
2023/07/20 13:03:47;;;;;;;2.53;0.85;;;28.50;76.30;;;;;;5092641;28;20056;-83
2023/07/20 13:06:34;;;;;;;5.28;0.80;;;28.40;76.60;;;;;;5093767;28;20407;-83
2023/07/20 13:09:20;;;;;;;4.72;0.77;;;29.00;75.60;;;;;;5094006;28;20091;-85
2023/07/20 13:12:07;;;;;;;4.85;0.82;;;28.80;75.40;;;;;;5092799;28;20087;-83
2023/07/20 13:14:54;;;;;;;7.07;1.20;;;28.60;75.30;;;;;;5091695;28;20495;-82
2023/07/20 13:17:40;;;;;;;2.33;0.75;;;28.80;74.40;;;;;;5093387;28;20056;-83
2023/07/20 13:20:28;;;;;;;3.55;0.88;;;28.60;75.00;;;;;;5091584;28;20419;-83
2023/07/20 13:23:14;;;;;;;4.50;1.00;;;28.90;77.80;;;;;;5091497;28;20456;-82
2023/07/20 13:26:00;;;;;;;3.10;0.82;;;28.20;75.90;;;;;;5074819;28;20048;-83
2023/07/20 13:28:46;;;;;;;3.95;1.17;;;28.40;75.70;;;;;;5092702;28;20055;-84
2023/07/20 13:31:32;;;;;;;5.25;1.50;;;28.80;75.00;;;;;;5091982;28;20047;-84
2023/07/20 13:34:18;;;;;;;6.75;1.42;;;29.20;75.50;;;;;;5092191;28;20048;-84
2023/07/20 13:37:04;;;;;;;3.55;1.08;;;29.50;75.00;;;;;;5073405;28;20105;-84
2023/07/20 13:39:50;;;;;;;4.88;1.10;;;29.50;73.40;;;;;;5092174;28;20048;-84
2023/07/20 13:42:37;;;;;;;2.45;0.95;;;29.60;72.80;;;;;;5074342;28;20117;-84
2023/07/20 13:45:23;;;;;;;2.90;1.00;;;29.40;73.70;;;;;;5091229;28;20109;-84
2023/07/20 13:48:09;;;;;;;4.95;0.98;;;29.80;74.70;;;;;;5091328;28;20138;-84
2023/07/20 13:50:55;;;;;;;2.60;0.80;;;30.20;73.40;;;;;;5090848;28;20056;-86
2023/07/20 13:53:41;;;;;;;2.38;0.82;;;30.60;71.30;;;;;;5091238;28;20119;-85
2023/07/20 13:56:27;;;;;;;4.63;0.90;;;30.10;71.20;;;;;;5090773;28;20078;-84
2023/07/20 13:59:13;;;;;;;2.38;0.60;;;30.20;71.60;;;;;;5091372;28;20066;-84
2023/07/20 14:01:59;;;;;;;3.47;0.95;;;30.30;71.00;;;;;;5091226;28;20105;-84
2023/07/20 14:04:45;;;;;;;3.42;0.80;;;30.80;71.10;;;;;;5090941;28;20506;-84
2023/07/20 14:07:31;;;;;;;4.63;0.88;;;31.00;71.20;;;;;;5092482;28;20052;-84
2023/07/20 14:10:18;;;;;;;3.70;0.90;;;30.80;69.90;;;;;;5090423;28;20412;-84
2023/07/20 14:13:04;;;;;;;5.50;0.90;;;30.70;68.60;;;;;;5092593;28;20138;-83
2023/07/20 14:15:50;;;;;;;3.65;0.85;;;30.70;69.50;;;;;;5072952;28;20480;-84
2023/07/20 14:18:36;;;;;;;2.83;0.80;;;31.00;69.40;;;;;;5090452;28;20158;-83
2023/07/20 14:21:23;;;;;;;4.50;0.90;;;31.40;69.00;;;;;;5091665;28;20056;-83
2023/07/20 14:24:09;;;;;;;3.88;0.77;;;31.60;68.00;;;;;;5077803;28;20054;-83
2023/07/20 14:26:55;;;;;;;3.58;0.93;;;31.80;69.00;;;;;;5091678;28;20048;-84
2023/07/20 14:29:41;;;;;;;4.13;0.80;;;32.10;68.30;;;;;;5090331;28;20052;-83